Vassouras, Brazil
Current Conditions -  °F | °C
As of 1:00 PM on Thursday 18 Dec 2014 (Local Time) from SBPB Reporting Station
Few Clouds Few Clouds  
Wind Chill: 93°   Ceiling: Unl
Heat Index: 101°   Visibility: 6mi
Dew Point: 72°   Wind: 18mph
Humidity: 49%   Direction: 60°ENE
Pressure: 29.85"   Gusts: NA
Location:  3.75°S, 42.17°W
Report Text: SBPB 181600Z 06016KT 9999 FEW020 34/22 Q1011
Loading
Personal Weather Stations






























Interactive Weather Map New forecast layout! Learn more

10-Day Weather Forecast

Advertisements
Track Severe Weather on mobile